createdAt,value
2023-03-15T00:01:26.304Z,96379.41
2023-03-15T00:03:55.009Z,96376.22
2023-03-15T00:06:22.132Z,96391.22
2023-03-15T00:08:49.019Z,96396.38
2023-03-15T00:11:16.990Z,96391.22
2023-03-15T00:13:44.987Z,96402.56
2023-03-15T00:16:17.273Z,96406.97
2023-03-15T00:18:47.711Z,96405.19
2023-03-15T00:21:15.169Z,96408.59
2023-03-15T00:23:42.042Z,96416.53
2023-03-15T00:26:08.834Z,96421.72
2023-03-15T00:28:35.949Z,96429.69
2023-03-15T00:31:16.208Z,96441.47
2023-03-15T00:33:45.268Z,96437.78
2023-03-15T00:36:13.204Z,96438.72
2023-03-15T00:38:43.835Z,96441.47
2023-03-15T00:41:14.928Z,96445.22
2023-03-15T00:43:43.309Z,96453.16
2023-03-15T00:46:10.892Z,96455.94
2023-03-15T00:48:38.143Z,96460.41
2023-03-15T00:51:07.090Z,96468.50
2023-03-15T00:53:35.627Z,96477.31
2023-03-15T00:56:13.039Z,96471.28
2023-03-15T00:58:40.694Z,96467.78
2023-03-15T01:01:17.579Z,96469.84
2023-03-15T01:03:45.672Z,96477.69
2023-03-15T01:06:16.685Z,96486.47
2023-03-15T01:08:44.073Z,96478.53
2023-03-15T01:11:15.338Z,96490.94
2023-03-15T01:13:42.748Z,96490.22
2023-03-15T01:16:13.438Z,96484.06
2023-03-15T01:18:41.227Z,96485.03
2023-03-15T01:21:11.082Z,96486.97
2023-03-15T01:23:37.832Z,96485.78
2023-03-15T01:26:07.804Z,96483.00
2023-03-15T01:28:34.625Z,96490.00
2023-03-15T01:31:02.946Z,96491.66
2023-03-15T01:33:29.872Z,96491.56
2023-03-15T01:36:06.478Z,96490.72
2023-03-15T01:38:34.367Z,96488.78
2023-03-15T01:41:02.392Z,96493.25
2023-03-15T01:43:34.223Z,96497.69
2023-03-15T01:46:34.030Z,96496.25
2023-03-15T01:49:22.706Z,96505.91
2023-03-15T01:51:57.826Z,96505.91
2023-03-15T01:54:37.446Z,96513.75
2023-03-15T01:57:17.050Z,96510.00
2023-03-15T01:59:52.967Z,96513.38
2023-03-15T02:02:23.220Z,96513.00
2023-03-15T02:05:09.862Z,96519.03
2023-03-15T02:07:49.899Z,96523.94
2023-03-15T02:10:29.002Z,96524.59
2023-03-15T02:12:59.607Z,96534.97
2023-03-15T02:15:27.287Z,96538.31
2023-03-15T02:17:54.630Z,96531.78
2023-03-15T02:21:09.959Z,96540.13
2023-03-15T02:23:36.880Z,96549.44
2023-03-15T02:26:26.076Z,96549.66
2023-03-15T02:28:54.293Z,96545.06
2023-03-15T02:31:21.918Z,96555.69
2023-03-15T02:33:55.462Z,96553.91
2023-03-15T02:36:25.360Z,96552.91
2023-03-15T02:38:53.633Z,96556.41
2023-03-15T02:41:42.247Z,96569.06
2023-03-15T02:44:24.733Z,96571.88
2023-03-15T02:46:55.410Z,96580.66
2023-03-15T02:49:27.258Z,96578.13
2023-03-15T02:51:54.514Z,96595.75
2023-03-15T02:54:21.344Z,96597.56
2023-03-15T02:56:48.163Z,96601.06
2023-03-15T02:59:14.988Z,96606.34
2023-03-15T03:01:42.143Z,96616.13
2023-03-15T03:04:09.205Z,96619.72
2023-03-15T03:06:36.043Z,96616.22
2023-03-15T03:09:04.624Z,96619.00
2023-03-15T03:11:31.516Z,96623.59
2023-03-15T03:13:58.325Z,96632.47
2023-03-15T03:16:25.330Z,96636.13
2023-03-15T03:18:52.256Z,96637.09
2023-03-15T03:21:19.345Z,96643.31
2023-03-15T03:23:46.148Z,96646.94
2023-03-15T03:26:17.141Z,96649.75
2023-03-15T03:28:47.739Z,96662.16
2023-03-15T03:31:23.548Z,96662.53
2023-03-15T03:33:52.441Z,96663.97
2023-03-15T03:36:19.771Z,96672.16
2023-03-15T03:38:47.294Z,96675.78
2023-03-15T03:41:15.342Z,96673.97
2023-03-15T03:43:42.323Z,96676.50
2023-03-15T03:46:09.975Z,96682.66
2023-03-15T03:48:41.531Z,96676.50
2023-03-15T03:51:08.392Z,96687.09
2023-03-15T03:53:35.478Z,96687.09
2023-03-15T03:56:06.005Z,96689.06
2023-03-15T03:58:34.391Z,96683.75
2023-03-15T04:01:12.380Z,96695.28
2023-03-15T04:03:40.791Z,96695.44
2023-03-15T04:06:14.227Z,96697.34
2023-03-15T04:08:44.637Z,96705.41
2023-03-15T04:11:17.533Z,96703.75
2023-03-15T04:13:49.189Z,96713.50
2023-03-15T04:16:16.080Z,96710.13
2023-03-15T04:19:07.488Z,96713.00
2023-03-15T04:21:36.942Z,96716.13
2023-03-15T04:24:18.966Z,96714.19
2023-03-15T04:27:15.043Z,96728.63
2023-03-15T04:29:59.790Z,96723.59
2023-03-15T04:33:00.184Z,96730.09
2023-03-15T04:35:47.340Z,96723.09
2023-03-15T04:38:35.421Z,96724.41
2023-03-15T04:41:26.933Z,96719.31
2023-03-15T04:44:03.756Z,96733.53
2023-03-15T04:46:55.188Z,96738.84
2023-03-15T04:49:42.300Z,96724.75
2023-03-15T04:52:32.071Z,96731.47
2023-03-15T04:55:10.026Z,96734.63
2023-03-15T04:57:58.274Z,96733.75
2023-03-15T05:00:33.837Z,96730.25
2023-03-15T05:03:07.033Z,96736.41
2023-03-15T05:05:54.043Z,96728.47
2023-03-15T05:08:39.581Z,96733.88
2023-03-15T05:11:33.834Z,96735.81
2023-03-15T05:14:16.789Z,96736.75
2023-03-15T05:17:02.220Z,96731.72
2023-03-15T05:20:12.393Z,96730.00
2023-03-15T05:22:49.285Z,96730.00
2023-03-15T05:25:39.574Z,96731.81
2023-03-15T05:28:31.636Z,96730.13
2023-03-15T05:31:15.267Z,96734.59
2023-03-15T05:34:04.208Z,96739.13
2023-03-15T05:36:51.881Z,96740.94
2023-03-15T05:39:35.352Z,96747.34
2023-03-15T05:42:11.876Z,96749.16
2023-03-15T05:44:59.146Z,96750.06
2023-03-15T05:47:55.126Z,96749.22
2023-03-15T05:50:33.714Z,96748.28
2023-03-15T05:53:18.150Z,96752.63
2023-03-15T05:56:05.508Z,96745.53
2023-03-15T05:58:51.059Z,96758.66
2023-03-15T06:01:47.248Z,96762.97
2023-03-15T06:04:23.772Z,96763.81
2023-03-15T06:06:52.578Z,96764.56
2023-03-15T06:09:21.093Z,96766.16
2023-03-15T06:11:47.922Z,96768.69
2023-03-15T06:14:14.736Z,96767.63
2023-03-15T06:16:52.899Z,96774.50
2023-03-15T06:19:21.347Z,96774.41
2023-03-15T06:21:48.889Z,96770.78
2023-03-15T06:24:23.164Z,96775.09
2023-03-15T06:26:50.030Z,96774.16
2023-03-15T06:29:17.391Z,96774.03
2023-03-15T06:31:49.394Z,96778.25
2023-03-15T06:34:17.368Z,96769.13
2023-03-15T06:36:45.261Z,96775.03
2023-03-15T06:39:13.340Z,96789.03
2023-03-15T06:41:41.673Z,96780.75
2023-03-15T06:44:13.958Z,96776.06
2023-03-15T06:46:41.891Z,96778.44
2023-03-15T06:49:08.695Z,96791.50
2023-03-15T06:51:36.494Z,96791.88
2023-03-15T06:54:03.442Z,96803.69
2023-03-15T06:56:37.106Z,96798.78
2023-03-15T06:59:04.495Z,96798.47
2023-03-15T07:01:31.471Z,96798.84
2023-03-15T07:03:58.279Z,96811.63
2023-03-15T07:06:25.262Z,96812.03
2023-03-15T07:08:52.081Z,96805.16
2023-03-15T07:11:18.875Z,96809.13
2023-03-15T07:13:45.731Z,96806.88
2023-03-15T07:16:12.686Z,96805.53
2023-03-15T07:18:39.576Z,96800.59
2023-03-15T07:21:08.079Z,96815.34
2023-03-15T07:23:34.887Z,96819.44
2023-03-15T07:26:01.992Z,96819.06
2023-03-15T07:28:29.283Z,96816.91
2023-03-15T07:31:01.925Z,96824.41
2023-03-15T07:33:31.742Z,96829.44
2023-03-15T07:35:59.170Z,96827.63
2023-03-15T07:38:31.150Z,96822.31
2023-03-15T07:40:58.332Z,96828.00
2023-03-15T07:43:25.400Z,96827.50
2023-03-15T07:46:05.883Z,96825.69
2023-03-15T07:48:32.756Z,96832.81
2023-03-15T07:50:59.804Z,96826.03
2023-03-15T07:53:26.716Z,96831.69
2023-03-15T07:55:54.105Z,96827.56
2023-03-15T07:58:20.977Z,96828.78
2023-03-15T08:00:48.017Z,96831.75
2023-03-15T08:03:14.956Z,96828.59
2023-03-15T08:05:41.795Z,96834.38
2023-03-15T08:08:08.592Z,96828.56
2023-03-15T08:10:35.502Z,96831.69
2023-03-15T08:13:02.326Z,96827.53
2023-03-15T08:15:29.566Z,96826.06
2023-03-15T08:17:59.111Z,96828.22
2023-03-15T08:20:29.707Z,96835.69
2023-03-15T08:22:56.961Z,96829.72
2023-03-15T08:25:25.276Z,96835.25
2023-03-15T08:27:52.717Z,96831.09
2023-03-15T08:30:21.484Z,96828.75
2023-03-15T08:32:50.268Z,96840.44
2023-03-15T08:35:19.830Z,96846.00
2023-03-15T08:37:47.617Z,96846.91
2023-03-15T08:40:18.254Z,96839.09
2023-03-15T08:42:45.346Z,96851.47
2023-03-15T08:45:12.601Z,96846.22
2023-03-15T08:47:39.424Z,96838.25
2023-03-15T08:50:12.119Z,96836.75
2023-03-15T08:52:39.957Z,96841.41
2023-03-15T08:55:08.163Z,96843.66
2023-03-15T08:57:35.229Z,96846.78
2023-03-15T09:00:09.308Z,96846.50
2023-03-15T09:02:37.240Z,96846.22
2023-03-15T09:05:06.977Z,96853.13
2023-03-15T09:07:34.411Z,96859.13
2023-03-15T09:10:03.403Z,96862.69
2023-03-15T09:12:31.693Z,96860.00
2023-03-15T09:14:58.476Z,96860.84
2023-03-15T09:17:25.340Z,96865.88
2023-03-15T09:19:52.472Z,96864.63
2023-03-15T09:22:29.270Z,96873.50
2023-03-15T09:25:05.712Z,96865.22
2023-03-15T09:27:32.549Z,96876.47
2023-03-15T09:29:59.345Z,96873.25
2023-03-15T09:32:26.718Z,96875.78
2023-03-15T09:34:54.440Z,96878.34
2023-03-15T09:37:21.926Z,96869.50
2023-03-15T09:39:48.831Z,96874.16
2023-03-15T09:42:36.812Z,96865.47
2023-03-15T09:45:27.787Z,96861.81
2023-03-15T09:48:17.794Z,96869.41
2023-03-15T09:50:54.916Z,96869.97
2023-03-15T09:53:32.019Z,96873.34
2023-03-15T09:55:58.840Z,96875.88
2023-03-15T09:58:32.862Z,96890.47
2023-03-15T10:01:08.325Z,96886.69
2023-03-15T10:03:53.457Z,96877.69
2023-03-15T10:06:27.042Z,96880.91
2023-03-15T10:08:59.373Z,96883.31
2023-03-15T10:11:47.691Z,96882.44
2023-03-15T10:14:39.195Z,96886.81
2023-03-15T10:17:13.102Z,96884.97
2023-03-15T10:19:49.433Z,96884.25
2023-03-15T10:22:41.135Z,96882.59
2023-03-15T10:25:30.868Z,96877.41
2023-03-15T10:28:11.112Z,96885.09
2023-03-15T10:30:42.327Z,96886.38
2023-03-15T10:33:34.327Z,96885.28
2023-03-15T10:36:10.967Z,96885.69
2023-03-15T10:38:38.969Z,96896.78
2023-03-15T10:41:06.783Z,96891.16
2023-03-15T10:43:36.961Z,96896.09
2023-03-15T10:46:24.110Z,96898.59
2023-03-15T10:49:00.500Z,96902.81
2023-03-15T10:51:33.720Z,96890.13
2023-03-15T10:54:10.878Z,96886.50
2023-03-15T10:56:51.809Z,96884.09
2023-03-15T10:59:24.200Z,96897.19
2023-03-15T11:02:14.283Z,96898.59
2023-03-15T11:05:24.940Z,96894.09
2023-03-15T11:08:00.789Z,96880.03
2023-03-15T11:10:33.938Z,96897.91
2023-03-15T11:13:20.554Z,96879.47
2023-03-15T11:16:03.558Z,96900.75
2023-03-15T11:18:36.815Z,96903.41
2023-03-15T11:21:12.189Z,96894.84
2023-03-15T11:23:47.640Z,96894.13
2023-03-15T11:26:33.244Z,96894.41
2023-03-15T11:29:15.204Z,96900.06
2023-03-15T11:31:42.379Z,96899.22
2023-03-15T11:34:31.696Z,96897.38
2023-03-15T11:37:12.764Z,96901.75
2023-03-15T11:39:58.747Z,96896.53
2023-03-15T11:42:39.254Z,96905.53
2023-03-15T11:45:18.389Z,96895.84
2023-03-15T11:47:58.342Z,96906.66
2023-03-15T11:50:25.082Z,96897.13
2023-03-15T11:52:52.774Z,96897.09
2023-03-15T11:55:28.182Z,96901.44
2023-03-15T11:57:57.850Z,96900.06
2023-03-15T12:00:36.448Z,96904.25
2023-03-15T12:03:38.915Z,96905.09
2023-03-15T12:06:17.927Z,96894.84
2023-03-15T12:08:52.747Z,96898.06
2023-03-15T12:11:22.492Z,96900.59
2023-03-15T12:14:01.526Z,96896.66
2023-03-15T12:16:34.670Z,96902.84
2023-03-15T12:19:17.149Z,96893.56
2023-03-15T12:21:52.238Z,96899.06
2023-03-15T12:24:35.212Z,96907.50
2023-03-15T12:27:18.360Z,96900.75
2023-03-15T12:29:47.485Z,96921.75
2023-03-15T12:32:18.861Z,96912.19
2023-03-15T12:34:50.763Z,96918.50
2023-03-15T12:37:41.476Z,96911.00
2023-03-15T12:40:22.101Z,96916.34
2023-03-15T12:42:48.730Z,96911.53
2023-03-15T12:45:15.473Z,96903.00
2023-03-15T12:47:49.450Z,96903.94
2023-03-15T12:50:44.124Z,96907.88
2023-03-15T12:53:22.647Z,96915.78
2023-03-15T12:55:59.447Z,96909.28
2023-03-15T12:58:37.012Z,96915.47
2023-03-15T13:01:07.389Z,96918.28
2023-03-15T13:03:36.385Z,96918.56
2023-03-15T13:06:22.107Z,96916.72
2023-03-15T13:09:14.698Z,96931.59
2023-03-15T13:12:04.037Z,96934.25
2023-03-15T13:14:58.289Z,96943.47
2023-03-15T13:17:50.640Z,96944.22
2023-03-15T13:20:28.939Z,96948.25
2023-03-15T13:23:30.314Z,96956.13
2023-03-15T13:26:28.510Z,96951.25
2023-03-15T13:29:17.526Z,96950.16
2023-03-15T13:31:46.652Z,96958.66
2023-03-15T13:34:24.014Z,96957.63
2023-03-15T13:37:02.181Z,96958.16
2023-03-15T13:39:33.338Z,96952.06
2023-03-15T13:42:16.421Z,96952.91
2023-03-15T13:44:43.315Z,96945.38
2023-03-15T13:47:22.134Z,96936.16
2023-03-15T13:49:52.625Z,96941.44
2023-03-15T13:52:19.601Z,96932.41
2023-03-15T13:54:46.611Z,96929.69
2023-03-15T13:57:18.211Z,96924.16
2023-03-15T13:59:55.237Z,96919.19
2023-03-15T14:02:43.216Z,96916.03
2023-03-15T14:05:19.272Z,96905.41
2023-03-15T14:07:59.585Z,96909.81
2023-03-15T14:11:18.108Z,96902.41
2023-03-15T14:13:54.144Z,96910.63
2023-03-15T14:16:57.301Z,96897.13
2023-03-15T14:19:31.330Z,96902.00
2023-03-15T14:22:02.739Z,96900.09
2023-03-15T14:24:44.275Z,96908.78
2023-03-15T14:27:18.300Z,96905.53
2023-03-15T14:29:55.079Z,96911.03
2023-03-15T14:32:38.597Z,96920.63
2023-03-15T14:35:08.863Z,96925.59
2023-03-15T14:37:41.969Z,96929.41
2023-03-15T14:40:28.383Z,96919.88
2023-03-15T14:42:55.288Z,96922.41
2023-03-15T14:45:22.993Z,96948.44
2023-03-15T14:48:06.495Z,96954.63
2023-03-15T14:50:40.721Z,96957.97
2023-03-15T14:53:11.632Z,96945.72
2023-03-15T14:55:38.442Z,96949.13
2023-03-15T14:58:13.443Z,96955.47
2023-03-15T15:00:42.375Z,96941.56
2023-03-15T15:03:18.583Z,96946.78
2023-03-15T15:05:46.926Z,96952.91
2023-03-15T15:08:19.058Z,96949.97
2023-03-15T15:10:48.825Z,96959.06
2023-03-15T15:13:26.413Z,96964.09
2023-03-15T15:15:56.603Z,96966.28
2023-03-15T15:18:26.276Z,96970.56
2023-03-15T15:20:55.832Z,96971.06
2023-03-15T15:23:28.799Z,96977.97
2023-03-15T15:26:02.641Z,96978.06
2023-03-15T15:28:35.762Z,96974.59
2023-03-15T15:31:07.195Z,96964.97
2023-03-15T15:33:34.383Z,96977.28
2023-03-15T15:36:01.680Z,96983.09
2023-03-15T15:38:38.050Z,96978.41
2023-03-15T15:41:05.526Z,96972.50
2023-03-15T15:43:33.685Z,96965.84
2023-03-15T15:46:01.723Z,96977.75
2023-03-15T15:48:28.615Z,96976.16
2023-03-15T15:50:55.585Z,96976.28
2023-03-15T15:53:22.823Z,96972.78
2023-03-15T15:55:49.763Z,96982.34
2023-03-15T15:58:17.397Z,96985.72
2023-03-15T16:00:44.216Z,96987.16
2023-03-15T16:03:16.079Z,96989.44
2023-03-15T16:05:43.517Z,97003.25
2023-03-15T16:08:25.524Z,96999.47
2023-03-15T16:10:52.460Z,97001.50
2023-03-15T16:13:19.256Z,96999.44
2023-03-15T16:15:46.044Z,96996.50
2023-03-15T16:18:14.306Z,96998.91
2023-03-15T16:20:42.663Z,96996.00
2023-03-15T16:23:19.998Z,96995.00
2023-03-15T16:25:51.028Z,97000.94
2023-03-15T16:28:18.149Z,97009.50
2023-03-15T16:30:46.893Z,97006.47
2023-03-15T16:33:17.635Z,97009.97
2023-03-15T16:35:44.873Z,97013.13
2023-03-15T16:38:26.130Z,97007.63
2023-03-15T16:40:53.140Z,96999.25
2023-03-15T16:43:22.988Z,97001.66
2023-03-15T16:45:49.765Z,97005.03
2023-03-15T16:48:16.546Z,97007.44
2023-03-15T16:50:44.067Z,96997.59
2023-03-15T16:53:13.185Z,97007.44
2023-03-15T16:55:40.457Z,97012.63
2023-03-15T16:58:19.093Z,97014.72
2023-03-15T17:00:47.891Z,97026.09
2023-03-15T17:03:16.608Z,97031.44
2023-03-15T17:05:46.445Z,97029.75
2023-03-15T17:08:19.257Z,97029.75
2023-03-15T17:10:47.205Z,97035.69
2023-03-15T17:13:24.645Z,97035.38
2023-03-15T17:15:51.537Z,97036.97
2023-03-15T17:18:21.648Z,97044.97
2023-03-15T17:20:50.052Z,97042.16
2023-03-15T17:23:17.773Z,97043.88
2023-03-15T17:25:44.727Z,97039.38
2023-03-15T17:28:11.543Z,97044.72
2023-03-15T17:30:38.557Z,97041.19
2023-03-15T17:33:06.555Z,97044.72
2023-03-15T17:35:38.040Z,97043.00
2023-03-15T17:38:07.357Z,97043.00
2023-03-15T17:40:36.156Z,97047.50
2023-03-15T17:43:04.978Z,97047.50
2023-03-15T17:45:34.449Z,97047.63
2023-03-15T17:48:02.391Z,97054.94
2023-03-15T17:50:32.408Z,97053.34
2023-03-15T17:53:16.529Z,97064.41
2023-03-15T17:55:44.146Z,97063.28
2023-03-15T17:58:17.476Z,97060.06
2023-03-15T18:00:44.374Z,97065.41
2023-03-15T18:03:13.503Z,97059.59
2023-03-15T18:05:40.895Z,97068.72
2023-03-15T18:08:12.296Z,97075.28
2023-03-15T18:10:43.739Z,97085.34
2023-03-15T18:13:21.438Z,97082.34
2023-03-15T18:15:50.010Z,97086.81
2023-03-15T18:18:17.842Z,97084.41
2023-03-15T18:20:45.824Z,97090.84
2023-03-15T18:23:14.860Z,97092.91
2023-03-15T18:25:42.977Z,97090.63
2023-03-15T18:28:09.840Z,97098.88
2023-03-15T18:30:36.601Z,97095.59
2023-03-15T18:33:05.608Z,97092.34
2023-03-15T18:35:35.480Z,97092.72
2023-03-15T18:38:04.169Z,97097.00
2023-03-15T18:40:32.634Z,97096.88
2023-03-15T18:43:00.196Z,97099.78
2023-03-15T18:45:33.538Z,97094.94
2023-03-15T18:48:00.421Z,97104.72
2023-03-15T18:50:28.468Z,97095.28
2023-03-15T18:52:55.625Z,97102.56
2023-03-15T18:55:22.733Z,97098.34
2023-03-15T18:57:52.061Z,97096.03
2023-03-15T19:00:27.196Z,97099.06
2023-03-15T19:03:00.503Z,97100.16
2023-03-15T19:05:31.835Z,97097.75
2023-03-15T19:07:58.881Z,97101.50
2023-03-15T19:10:26.024Z,97106.22
2023-03-15T19:12:53.678Z,97099.44
2023-03-15T19:15:22.583Z,97101.63
2023-03-15T19:17:51.705Z,97103.69
2023-03-15T19:20:23.433Z,97105.75
2023-03-15T19:22:52.353Z,97102.63
2023-03-15T19:25:20.346Z,97095.84
2023-03-15T19:27:49.775Z,97108.41
2023-03-15T19:30:20.809Z,97110.59
2023-03-15T19:32:49.583Z,97113.47
2023-03-15T19:35:18.850Z,97118.22
2023-03-15T19:37:46.918Z,97114.09
2023-03-15T19:40:16.503Z,97118.69
2023-03-15T19:42:44.172Z,97119.03
2023-03-15T19:45:12.000Z,97119.28
2023-03-15T19:47:40.048Z,97122.28
2023-03-15T19:50:14.567Z,97124.47
2023-03-15T19:52:46.084Z,97129.16
2023-03-15T19:55:21.731Z,97125.19
2023-03-15T19:57:49.718Z,97128.91
2023-03-15T20:00:18.415Z,97129.25
2023-03-15T20:02:47.159Z,97131.31
2023-03-15T20:05:20.080Z,97131.78
2023-03-15T20:07:53.900Z,97134.66
2023-03-15T20:10:21.416Z,97134.03
2023-03-15T20:12:48.964Z,97132.59
2023-03-15T20:15:18.849Z,97131.97
2023-03-15T20:17:45.891Z,97135.31
2023-03-15T20:24:20.256Z,97136.84
2023-03-15T20:26:51.657Z,97131.25
2023-03-15T20:29:18.665Z,97131.38
2023-03-15T20:31:45.617Z,97149.22
2023-03-15T20:34:12.504Z,97145.94
2023-03-15T20:36:42.197Z,97149.69
2023-03-15T20:39:21.849Z,97147.34
2023-03-15T20:41:49.078Z,97153.75
2023-03-15T20:44:16.232Z,97145.16
2023-03-15T20:46:43.744Z,97140.06
2023-03-15T20:49:10.813Z,97150.06
2023-03-15T20:51:40.192Z,97145.84
2023-03-15T20:54:07.045Z,97152.13
2023-03-15T20:56:34.270Z,97141.59
2023-03-15T20:59:04.218Z,97141.72
2023-03-15T21:01:31.901Z,97143.59
2023-03-15T21:03:59.158Z,97146.38
2023-03-15T21:06:25.984Z,97150.94
2023-03-15T21:08:52.837Z,97155.53
2023-03-15T21:11:19.639Z,97153.00
2023-03-15T21:13:46.583Z,97154.91
2023-03-15T21:16:13.484Z,97161.28
2023-03-15T21:18:47.454Z,97155.44
2023-03-15T21:21:14.414Z,97153.88
2023-03-15T21:23:41.892Z,97163.88
2023-03-15T21:26:11.071Z,97159.72
2023-03-15T21:28:38.793Z,97156.13
2023-03-15T21:31:06.545Z,97163.34
2023-03-15T21:33:33.855Z,97161.53
2023-03-15T21:36:01.261Z,97157.06
2023-03-15T21:38:31.217Z,97154.44
2023-03-15T21:40:59.624Z,97157.94
2023-03-15T21:43:30.085Z,97156.13
2023-03-15T21:46:14.453Z,97160.69
2023-03-15T21:48:41.985Z,97157.81
2023-03-15T21:51:09.578Z,97164.84
2023-03-15T21:53:36.774Z,97162.19
2023-03-15T21:56:05.070Z,97170.13
2023-03-15T21:58:32.469Z,97156.88
2023-03-15T22:01:02.354Z,97166.53
2023-03-15T22:03:30.149Z,97162.19
2023-03-15T22:05:57.505Z,97165.69
2023-03-15T22:08:24.978Z,97156.88
2023-03-15T22:10:57.235Z,97163.09
2023-03-15T22:13:24.787Z,97160.56
2023-03-15T22:15:52.414Z,97166.00
2023-03-15T22:18:19.739Z,97166.09
2023-03-15T22:20:48.642Z,97169.84
2023-03-15T22:23:15.536Z,97163.78
2023-03-15T22:25:42.430Z,97158.59
2023-03-15T22:28:09.310Z,97157.81
2023-03-15T22:30:36.444Z,97172.06
2023-03-15T22:33:03.380Z,97161.66
2023-03-15T22:35:30.357Z,97173.13
2023-03-15T22:37:57.293Z,97168.78
2023-03-15T22:40:27.959Z,97171.44
2023-03-15T22:42:57.091Z,97168.66
2023-03-15T22:45:25.860Z,97169.53
2023-03-15T22:47:53.178Z,97167.72
2023-03-15T22:50:20.402Z,97169.63
2023-03-15T22:52:48.227Z,97166.97
2023-03-15T22:55:15.026Z,97162.50
2023-03-15T22:57:41.876Z,97171.22
2023-03-15T23:00:13.934Z,97159.84
2023-03-15T23:02:44.900Z,97158.16
2023-03-15T23:05:13.520Z,97156.34
2023-03-15T23:07:41.292Z,97151.16
2023-03-15T23:10:09.021Z,97148.59
2023-03-15T23:12:36.795Z,97152.34
2023-03-15T23:15:04.775Z,97144.53
2023-03-15T23:17:31.952Z,97148.25
2023-03-15T23:19:58.871Z,97146.81
2023-03-15T23:22:25.687Z,97142.53
2023-03-15T23:24:52.549Z,97133.94
2023-03-15T23:27:19.369Z,97148.28
2023-03-15T23:29:54.653Z,97139.59
2023-03-15T23:32:24.859Z,97137.06
2023-03-15T23:34:53.428Z,97142.66
2023-03-15T23:37:20.707Z,97137.06
2023-03-15T23:39:47.624Z,97140.63
2023-03-15T23:42:14.466Z,97141.59
2023-03-15T23:44:41.354Z,97135.44
2023-03-15T23:47:08.345Z,97134.59
2023-03-15T23:49:35.240Z,97138.09
2023-03-15T23:52:05.291Z,97129.38
2023-03-15T23:54:41.100Z,97129.38
2023-03-15T23:57:11.080Z,97133.97
2023-03-15T23:59:38.689Z,97132.16
